createdAt,value
2018-06-11T00:04:58.151Z,93.40
2018-06-11T00:07:35.289Z,93.40
2018-06-11T00:10:15.189Z,93.50
2018-06-11T00:12:42.950Z,93.50
2018-06-11T00:15:11.799Z,93.70
2018-06-11T00:17:39.833Z,93.60
2018-06-11T00:20:07.590Z,93.80
2018-06-11T00:22:35.319Z,93.90
2018-06-11T00:27:56.858Z,94.30
2018-06-11T00:30:24.617Z,94.60
2018-06-11T00:32:52.399Z,94.30
2018-06-11T00:35:20.121Z,94.30
2018-06-11T00:37:47.927Z,94.60
2018-06-11T00:40:16.219Z,94.60
2018-06-11T00:42:43.986Z,94.90
2018-06-11T00:45:11.695Z,94.90
2018-06-11T00:47:39.436Z,94.80
2018-06-11T00:50:07.223Z,94.70
2018-06-11T00:52:47.715Z,94.80
2018-06-11T00:55:15.450Z,94.90
2018-06-11T00:57:45.669Z,95.00
2018-06-11T01:00:13.364Z,95.10
2018-06-11T01:02:46.013Z,95.10
2018-06-11T01:05:13.746Z,95.00
2018-06-11T01:07:41.750Z,95.00
2018-06-11T01:10:09.526Z,94.90
2018-06-11T01:12:37.238Z,94.80
2018-06-11T01:15:04.873Z,94.60
2018-06-11T01:17:40.247Z,94.50
2018-06-11T01:20:07.961Z,94.50
2018-06-11T01:22:48.966Z,94.80
2018-06-11T01:30:59.339Z,94.80
2018-06-11T01:33:27.034Z,95.10
2018-06-11T01:35:54.994Z,96.00
2018-06-11T01:38:22.683Z,95.50
2018-06-11T01:40:50.366Z,95.80
2018-06-11T01:43:18.052Z,95.80
2018-06-11T01:45:46.102Z,96.10
2018-06-11T01:48:16.735Z,96.00
2018-06-11T01:50:44.464Z,96.10
2018-06-11T01:53:12.213Z,96.10
2018-06-11T01:55:39.935Z,96.70
2018-06-11T01:58:07.642Z,97.00
2018-06-11T02:00:35.805Z,97.20
2018-06-11T02:03:03.524Z,97.50
2018-06-11T02:05:31.214Z,97.70
2018-06-11T02:07:58.993Z,98.20
2018-06-11T02:10:26.674Z,99.00
2018-06-11T02:12:54.370Z,99.20
2018-06-11T02:15:22.030Z,98.60
2018-06-11T02:17:49.659Z,98.70
2018-06-11T02:20:44.702Z,98.80
2018-06-11T02:23:12.443Z,98.70
2018-06-11T02:25:40.356Z,98.60
2018-06-11T02:28:18.373Z,98.90
2018-06-11T02:33:32.948Z,99.20
2018-06-11T02:36:14.543Z,99.50
2018-06-11T02:41:47.078Z,99.20
2018-06-11T02:44:14.950Z,99.20
2018-06-11T02:46:42.742Z,99.50
2018-06-11T02:49:22.130Z,99.10
2018-06-11T02:51:49.865Z,99.60
2018-06-11T02:54:17.639Z,99.10
2018-06-11T02:56:45.415Z,98.90
2018-06-11T02:59:16.653Z,98.80
2018-06-11T04:01:16.950Z,98.70
2018-06-11T04:03:46.098Z,98.80
2018-06-11T04:12:16.561Z,99.20
2018-06-11T04:20:16.724Z,98.90
2018-06-11T04:23:16.554Z,99.50
2018-06-11T04:36:57.816Z,98.80
2018-06-11T05:03:46.964Z,98.10
2018-06-11T05:06:16.773Z,99.10
2018-06-11T05:08:46.245Z,98.80
2018-06-11T05:11:16.551Z,98.60
2018-06-11T05:37:47.469Z,98.30
2018-06-11T05:40:15.439Z,98.10
2018-06-11T05:42:47.123Z,97.70
2018-06-11T05:53:43.090Z,96.60
2018-06-11T05:56:10.866Z,96.80
2018-06-11T05:58:42.290Z,97.00
2018-06-11T06:01:10.178Z,96.30
2018-06-11T06:03:38.046Z,96.50
2018-06-11T06:06:05.903Z,96.30
2018-06-11T06:08:46.388Z,95.70
2018-06-11T06:11:17.911Z,95.80
2018-06-11T06:13:46.551Z,95.40
2018-06-11T06:16:14.637Z,95.00
2018-06-11T06:18:42.644Z,94.70
2018-06-11T06:21:12.623Z,94.40
2018-06-11T06:23:40.737Z,94.50
2018-06-11T06:26:16.375Z,93.90
2018-06-11T06:28:44.951Z,93.80
2018-06-11T06:31:18.376Z,92.90
2018-06-11T06:33:46.094Z,92.80
2018-06-11T06:36:14.527Z,93.30
2018-06-11T06:42:49.360Z,92.70
2018-06-11T06:49:16.249Z,92.70
2018-06-11T06:51:46.735Z,93.10
2018-06-11T06:54:17.381Z,93.20
2018-06-11T06:56:46.771Z,92.80
2018-06-11T06:59:16.204Z,92.70
2018-06-11T07:05:02.533Z,92.40
2018-06-11T07:07:35.584Z,91.70
2018-06-11T07:10:22.589Z,91.50
2018-06-11T07:12:50.426Z,91.30
2018-06-11T07:15:18.378Z,91.30
2018-06-11T07:17:46.978Z,90.90
2018-06-11T07:20:15.036Z,90.80
2018-06-11T08:01:14.219Z,91.30
2018-06-11T08:03:45.666Z,91.60
2018-06-11T08:06:17.573Z,91.40
2018-06-11T08:08:45.698Z,91.40
2018-06-11T08:11:48.358Z,91.30
2018-06-11T08:14:22.433Z,91.00
2018-06-11T08:17:02.494Z,91.20
2018-06-11T08:19:30.696Z,90.70
2018-06-11T08:22:16.660Z,90.50
2018-06-11T08:24:45.828Z,90.90
2018-06-11T08:30:18.403Z,88.80
2018-06-11T08:32:46.318Z,88.00
2018-06-11T08:38:18.127Z,86.20
2018-06-11T08:41:11.899Z,83.50
2018-06-11T08:46:14.861Z,83.80
2018-06-11T08:48:45.213Z,82.10
2018-06-11T08:51:15.712Z,83.30
2018-06-11T08:53:46.054Z,83.20
2018-06-11T08:56:15.380Z,81.70
2018-06-11T08:58:44.271Z,80.90
2018-06-11T09:01:12.358Z,82.60
2018-06-11T09:03:41.120Z,80.90
2018-06-11T09:06:16.934Z,80.40
2018-06-11T09:08:46.816Z,82.00
2018-06-11T09:11:16.537Z,81.80
2018-06-11T09:13:45.556Z,82.50
2018-06-11T09:16:14.633Z,83.80
2018-06-11T09:18:46.911Z,83.00
2018-06-11T09:21:16.038Z,81.00
2018-06-11T09:23:48.197Z,80.30
2018-06-11T09:26:15.948Z,78.60
2018-06-11T09:28:45.650Z,78.50
2018-06-11T09:31:15.058Z,78.00
2018-06-11T09:33:45.397Z,77.40
2018-06-11T09:36:15.610Z,78.10
2018-06-11T09:38:46.887Z,77.80
2018-06-11T09:41:14.617Z,78.00
2018-06-11T09:43:42.433Z,76.40
2018-06-11T09:46:15.573Z,75.80
2018-06-11T09:48:43.505Z,75.60
2018-06-11T09:51:11.474Z,75.40
2018-06-11T09:53:45.502Z,75.70
2018-06-11T09:56:13.530Z,75.30
2018-06-11T09:58:41.397Z,77.60
2018-06-11T10:01:10.660Z,75.90
2018-06-11T10:03:38.475Z,76.70
2018-06-11T10:06:06.177Z,76.30
2018-06-11T10:08:33.917Z,76.80
2018-06-11T10:11:01.817Z,76.20
2018-06-11T10:13:29.637Z,76.30
2018-06-11T10:16:02.339Z,76.10
2018-06-11T10:18:30.057Z,76.20
2018-06-11T10:20:59.591Z,76.40
2018-06-11T10:23:31.973Z,76.70
2018-06-11T10:25:59.751Z,77.80
2018-06-11T10:28:34.444Z,77.60
2018-06-11T10:31:15.046Z,78.40
2018-06-11T10:33:43.074Z,77.30
2018-06-11T10:36:10.843Z,78.30
2018-06-11T10:38:39.711Z,76.30
2018-06-11T10:41:07.600Z,77.40
2018-06-11T10:43:35.444Z,75.40
2018-06-11T10:46:03.142Z,75.40
2018-06-11T10:48:32.726Z,75.00
2018-06-11T10:51:00.463Z,75.60
2018-06-11T10:53:28.400Z,75.60
2018-06-11T10:55:56.143Z,74.40
2018-06-11T10:58:32.898Z,73.80
2018-06-11T11:01:07.071Z,75.10
2018-06-11T11:03:34.875Z,75.00
2018-06-11T11:06:08.960Z,74.10
2018-06-11T11:08:40.529Z,74.70
2018-06-11T11:11:08.468Z,75.10
2018-06-11T11:13:36.206Z,75.20
2018-06-11T11:16:04.357Z,75.50
2018-06-11T11:18:33.825Z,74.80
2018-06-11T11:21:01.508Z,75.40
2018-06-11T11:23:45.353Z,75.00
2018-06-11T11:26:13.154Z,75.50
2018-06-11T11:28:40.800Z,76.40
2018-06-11T11:31:08.569Z,76.20
2018-06-11T11:33:36.305Z,75.40
2018-06-11T11:36:10.724Z,75.30
2018-06-11T11:38:38.787Z,74.50
2018-06-11T11:41:07.850Z,75.10
2018-06-11T11:43:35.604Z,75.30
2018-06-11T11:46:04.023Z,74.20
2018-06-11T11:48:31.754Z,74.20
2018-06-11T11:51:00.855Z,74.10
2018-06-11T11:53:28.806Z,74.20
2018-06-11T11:55:56.516Z,74.50
2018-06-11T11:58:24.313Z,74.70
2018-06-11T12:00:53.350Z,74.40
2018-06-11T12:03:21.324Z,73.20
2018-06-11T12:05:49.014Z,75.00
2018-06-11T12:08:16.753Z,71.70
2018-06-11T12:10:45.330Z,70.70
2018-06-11T12:13:13.074Z,70.00
2018-06-11T12:15:40.853Z,71.10
2018-06-11T12:18:10.768Z,71.30
2018-06-11T12:20:41.817Z,72.60
2018-06-11T12:23:11.941Z,72.20
2018-06-11T12:25:44.134Z,71.70
2018-06-11T12:28:14.506Z,70.70
2018-06-11T12:30:49.319Z,70.30
2018-06-11T12:33:17.102Z,69.10
2018-06-11T12:35:49.892Z,68.60
2018-06-11T12:38:17.648Z,69.30
2018-06-11T12:40:47.390Z,68.80
2018-06-11T12:43:16.214Z,69.90
2018-06-11T12:45:44.221Z,69.60
2018-06-11T12:48:14.188Z,69.50
2018-06-11T12:50:45.980Z,69.10
2018-06-11T12:53:13.766Z,68.80
2018-06-11T12:55:41.489Z,70.00
2018-06-11T12:58:09.757Z,69.70
2018-06-11T13:00:38.475Z,69.80
2018-06-11T13:03:06.181Z,70.90
2018-06-11T13:05:34.591Z,70.40
2018-06-11T13:08:11.907Z,70.50
2018-06-11T13:10:44.858Z,71.10
2018-06-11T13:13:14.263Z,70.70
2018-06-11T13:15:43.229Z,71.70
2018-06-11T13:18:11.082Z,71.80
2018-06-11T13:20:45.533Z,72.00
2018-06-11T13:23:17.165Z,71.20
2018-06-11T13:25:44.938Z,71.90
2018-06-11T13:28:12.895Z,71.20
2018-06-11T13:30:43.502Z,72.80
2018-06-11T13:33:12.501Z,71.80
2018-06-11T13:35:40.627Z,71.00
2018-06-11T13:38:09.052Z,70.80
2018-06-11T13:40:53.408Z,73.60
2018-06-11T13:43:21.243Z,72.90
2018-06-11T13:46:05.940Z,73.80
2018-06-11T13:51:18.336Z,75.10
2018-06-11T13:53:46.142Z,75.20
2018-06-11T13:56:15.028Z,73.40
2018-06-11T14:01:30.213Z,75.10
2018-06-11T14:03:59.081Z,74.80
2018-06-11T14:06:31.083Z,74.40
2018-06-11T14:09:06.659Z,74.40
2018-06-11T14:11:42.490Z,75.40
2018-06-11T14:14:12.971Z,76.70
2018-06-11T14:16:41.678Z,76.80
2018-06-11T14:19:09.474Z,77.90
2018-06-11T14:21:37.734Z,77.10
2018-06-11T14:24:08.134Z,75.80
2018-06-11T14:26:37.034Z,74.80
2018-06-11T14:31:44.305Z,75.00
2018-06-11T14:34:12.002Z,75.10
2018-06-11T14:36:39.675Z,75.10
2018-06-11T14:39:14.122Z,76.70
2018-06-11T14:41:41.904Z,75.10
2018-06-11T14:44:10.034Z,74.50
2018-06-11T14:49:33.069Z,74.70
2018-06-11T14:52:00.781Z,73.90
2018-06-11T14:54:29.627Z,74.90
2018-06-11T14:56:57.825Z,75.00
2018-06-11T14:59:25.545Z,74.20
2018-06-11T15:01:54.885Z,74.70
2018-06-11T15:04:22.571Z,76.20
2018-06-11T15:06:53.384Z,76.10
2018-06-11T15:09:21.232Z,75.70
2018-06-11T15:11:48.898Z,75.40
2018-06-11T15:14:16.523Z,75.40
2018-06-11T15:16:48.483Z,75.10
2018-06-11T15:19:16.201Z,76.10
2018-06-11T15:21:43.895Z,76.60
2018-06-11T15:24:13.841Z,76.70
2018-06-11T15:26:41.569Z,76.00
2018-06-11T15:29:09.312Z,76.20
2018-06-11T15:31:36.975Z,76.60
2018-06-11T15:34:04.636Z,76.80
2018-06-11T15:36:35.996Z,76.10
2018-06-11T15:39:04.195Z,76.70
2018-06-11T15:41:31.907Z,76.40
2018-06-11T15:43:59.634Z,77.20
2018-06-11T15:46:32.669Z,76.70
2018-06-11T15:49:01.490Z,76.40
2018-06-11T15:51:29.089Z,76.60
2018-06-11T15:53:57.189Z,76.60
2018-06-11T15:56:38.009Z,77.10
2018-06-11T15:59:11.458Z,77.90
2018-06-11T16:01:42.670Z,77.20
2018-06-11T16:04:10.485Z,79.30
2018-06-11T16:06:38.147Z,81.00
2018-06-11T16:09:06.609Z,80.20
2018-06-11T16:11:34.231Z,83.10
2018-06-11T16:14:01.825Z,84.60
2018-06-11T16:16:29.415Z,84.00
2018-06-11T16:18:57.029Z,84.70
2018-06-11T16:21:29.402Z,84.20
2018-06-11T16:23:57.041Z,86.30
2018-06-11T16:26:24.746Z,86.40
2018-06-11T16:28:52.492Z,86.90
2018-06-11T16:31:20.064Z,85.90
2018-06-11T16:33:47.728Z,88.80
2018-06-11T16:36:23.055Z,89.00
2018-06-11T16:38:50.974Z,89.40
2018-06-11T16:41:23.400Z,89.70
2018-06-11T16:43:51.045Z,88.40
2018-06-11T16:46:18.845Z,90.20
2018-06-11T16:48:46.655Z,90.00
2018-06-11T16:51:14.409Z,90.60
2018-06-11T16:53:42.121Z,90.90
2018-06-11T16:56:09.959Z,90.80
2018-06-11T16:58:37.962Z,92.10
2018-06-11T17:01:05.767Z,91.70
2018-06-11T17:03:33.425Z,91.70
2018-06-11T17:06:01.335Z,91.50
2018-06-11T17:08:29.951Z,91.90
2018-06-11T17:10:57.751Z,92.70
2018-06-11T17:13:25.445Z,92.50
2018-06-11T17:15:53.292Z,92.50
2018-06-11T17:18:21.037Z,92.10
2018-06-11T17:20:48.731Z,92.00
2018-06-11T17:23:19.676Z,92.50
2018-06-11T17:25:48.203Z,92.60
2018-06-11T17:28:18.994Z,93.20
2018-06-11T17:30:47.301Z,92.70
2018-06-11T17:33:17.732Z,93.70
2018-06-11T17:35:52.321Z,93.90
2018-06-11T17:38:20.446Z,93.60
2018-06-11T17:40:48.413Z,93.80
2018-06-11T17:43:16.472Z,93.40
2018-06-11T17:48:49.576Z,94.00
2018-06-11T17:51:18.589Z,93.70
2018-06-11T17:53:46.609Z,94.30
2018-06-11T17:56:28.491Z,93.70
2018-06-11T17:59:34.533Z,94.10
2018-06-11T18:02:06.093Z,94.20
2018-06-11T18:04:47.478Z,94.20
2018-06-11T18:07:16.606Z,93.90
2018-06-11T18:09:45.980Z,94.10
2018-06-11T18:12:15.932Z,94.30
2018-06-11T18:14:46.348Z,94.60
2018-06-11T18:17:15.446Z,94.80
2018-06-11T18:19:44.935Z,95.50
2018-06-11T18:22:16.807Z,94.70
2018-06-11T18:24:44.576Z,95.50
2018-06-11T18:27:15.231Z,95.50
2018-06-11T18:29:46.791Z,94.90
2018-06-11T18:32:17.573Z,96.30
2018-06-11T18:34:46.350Z,95.20
2018-06-11T18:37:17.121Z,95.50
2018-06-11T18:39:46.151Z,95.50
2018-06-11T18:42:15.782Z,95.80
2018-06-11T18:44:48.970Z,96.20
2018-06-11T18:50:15.693Z,96.10
2018-06-11T18:52:46.553Z,96.50
2018-06-11T18:55:14.229Z,95.80
2018-06-11T18:57:47.807Z,95.50
2018-06-11T19:00:15.502Z,96.10
2018-06-11T19:02:44.494Z,96.00
2018-06-11T19:05:13.204Z,96.00
2018-06-11T19:07:40.920Z,96.10
2018-06-11T19:10:14.546Z,97.00
2018-06-11T19:12:42.409Z,97.00
2018-06-11T19:15:10.123Z,96.30
2018-06-11T19:17:37.757Z,96.60
2018-06-11T19:20:05.462Z,97.20
2018-06-11T19:22:33.284Z,96.40
2018-06-11T19:25:01.061Z,96.70
2018-06-11T19:27:28.743Z,96.70
2018-06-11T19:29:56.430Z,96.60
2018-06-11T19:32:28.578Z,96.30
2018-06-11T19:34:56.262Z,96.10
2018-06-11T19:37:23.937Z,96.10
2018-06-11T19:39:51.601Z,96.50
2018-06-11T19:42:19.334Z,96.70
2018-06-11T19:44:47.024Z,97.60
2018-06-11T19:47:14.941Z,96.90
2018-06-11T19:49:42.677Z,97.10
2018-06-11T19:52:10.489Z,96.70
2018-06-11T19:54:38.438Z,96.90
2018-06-11T19:57:06.141Z,96.60
2018-06-11T19:59:33.742Z,97.30
2018-06-11T20:02:01.400Z,96.80
2018-06-11T20:04:29.152Z,97.00
2018-06-11T20:06:56.850Z,97.10
2018-06-11T20:09:24.636Z,97.70
2018-06-11T20:12:10.815Z,97.80
2018-06-11T20:14:38.648Z,98.00
2018-06-11T20:17:06.319Z,98.30
2018-06-11T20:19:34.082Z,98.30
2018-06-11T20:22:01.734Z,98.40
2018-06-11T20:24:29.511Z,98.10
2018-06-11T20:26:57.125Z,98.00
2018-06-11T20:29:24.957Z,97.80
2018-06-11T20:31:58.409Z,96.90
2018-06-11T20:34:26.162Z,96.50
2018-06-11T20:36:53.872Z,96.70
2018-06-11T20:39:21.631Z,97.60
2018-06-11T20:41:49.267Z,97.50
2018-06-11T20:44:20.416Z,96.30
2018-06-11T20:46:48.490Z,96.10
2018-06-11T20:49:16.604Z,96.00
2018-06-11T20:51:44.385Z,96.60
2018-06-11T20:54:12.533Z,96.60
2018-06-11T20:56:40.212Z,96.20
2018-06-11T20:59:08.128Z,95.80
2018-06-11T21:01:35.741Z,95.90
2018-06-11T21:04:03.391Z,95.30
2018-06-11T21:06:31.071Z,95.50
2018-06-11T21:08:58.704Z,95.90
2018-06-11T21:11:26.704Z,95.10
2018-06-11T21:13:54.362Z,96.10
2018-06-11T21:16:21.997Z,95.70
2018-06-11T21:18:49.786Z,96.10
2018-06-11T21:21:17.472Z,96.40
2018-06-11T21:23:45.439Z,95.30
2018-06-11T21:26:13.105Z,96.00
2018-06-11T21:28:40.877Z,95.90
2018-06-11T21:31:12.193Z,95.80
2018-06-11T21:33:40.849Z,95.30
2018-06-11T21:36:08.428Z,95.70
2018-06-11T21:38:36.199Z,95.70
2018-06-11T21:41:03.921Z,95.80
2018-06-11T21:43:34.888Z,96.10
2018-06-11T21:46:02.651Z,95.60
2018-06-11T21:48:30.717Z,95.50
2018-06-11T21:50:58.557Z,95.50
2018-06-11T21:53:26.278Z,95.80
2018-06-11T21:56:06.577Z,94.90
2018-06-11T21:58:34.312Z,95.60
2018-06-11T22:01:03.101Z,95.30
2018-06-11T22:03:36.504Z,95.40
2018-06-11T22:06:04.222Z,95.80
2018-06-11T22:08:35.567Z,96.20
2018-06-11T22:11:03.278Z,95.60
2018-06-11T22:13:31.072Z,95.80
2018-06-11T22:15:58.878Z,95.60
2018-06-11T22:18:26.614Z,95.20
2018-06-11T22:20:54.381Z,95.80
2018-06-11T22:23:22.099Z,94.80
2018-06-11T22:25:49.815Z,95.20
2018-06-11T22:28:18.307Z,95.00
2018-06-11T22:30:46.045Z,95.40
2018-06-11T22:33:13.824Z,95.60
2018-06-11T22:35:41.578Z,95.00
2018-06-11T22:38:09.227Z,95.50
2018-06-11T22:40:36.849Z,95.30
2018-06-11T22:43:04.544Z,95.20
2018-06-11T22:45:32.265Z,95.30
2018-06-11T22:48:00.103Z,94.90
2018-06-11T22:50:27.703Z,94.70
2018-06-11T22:52:55.305Z,95.30
2018-06-11T22:55:23.010Z,95.20
2018-06-11T22:57:50.698Z,94.80
2018-06-11T23:00:19.935Z,94.10
2018-06-11T23:02:47.646Z,94.20
2018-06-11T23:05:15.487Z,94.20
2018-06-11T23:07:43.217Z,94.40
2018-06-11T23:10:10.853Z,94.40
2018-06-11T23:12:38.498Z,95.00
2018-06-11T23:15:06.142Z,95.10
2018-06-11T23:17:33.941Z,94.40
2018-06-11T23:20:01.731Z,94.80
2018-06-11T23:22:29.471Z,95.10
2018-06-11T23:24:57.159Z,94.50
2018-06-11T23:27:24.825Z,94.50
2018-06-11T23:29:52.488Z,93.80
2018-06-11T23:32:20.186Z,94.60
2018-06-11T23:34:47.846Z,93.40
2018-06-11T23:37:16.574Z,93.40
2018-06-11T23:39:44.246Z,93.50
2018-06-11T23:42:11.945Z,93.40
2018-06-11T23:44:39.776Z,93.70
2018-06-11T23:47:07.863Z,93.70
2018-06-11T23:49:35.491Z,94.20
2018-06-11T23:52:03.220Z,94.20
2018-06-11T23:54:31.157Z,94.10
2018-06-11T23:57:01.641Z,94.50
2018-06-11T23:59:29.383Z,94.70
